Time;durP1;ratioP1;P1;durP2;ratioP2;P2;SDS_P1;SDS_P2;PMS_P1;PMS_P2;Temp;Humidity;BMP_temperature;BMP_pressure;BME280_temperature;BME280_humidity;BME280_pressure;Samples;Min_cycle;Max_cycle;Signal;HPM_P1;HPM_P2
2021/05/17 00:00:52;;;;;;;2.60;1.80;;;;;;;7.39;100.00;99460.66;4863493;29;20052;-82
2021/05/17 00:03:19;;;;;;;3.73;2.07;;;;;;;7.45;100.00;99463.97;4879049;29;20511;-82
2021/05/17 00:05:46;;;;;;;3.17;2.07;;;;;;;7.44;100.00;99448.25;4894079;29;20048;-82
2021/05/17 00:08:13;;;;;;;3.20;2.13;;;;;;;7.43;100.00;99446.53;4897739;29;20044;-82
2021/05/17 00:10:40;;;;;;;3.70;2.43;;;;;;;7.45;100.00;99447.34;4877265;29;20060;-82
2021/05/17 00:13:07;;;;;;;2.80;2.08;;;;;;;7.48;100.00;99447.25;4893073;29;20060;-82
2021/05/17 00:15:33;;;;;;;3.47;1.93;;;;;;;7.50;100.00;99435.81;4893285;29;20052;-82
2021/05/17 00:18:03;;;;;;;6.20;2.20;;;;;;;7.42;100.00;99440.44;4877856;29;20057;-82
2021/05/17 00:20:30;;;;;;;3.33;1.70;;;;;;;7.29;100.00;99442.50;4879054;29;20057;-82
2021/05/17 00:22:57;;;;;;;1.90;1.67;;;;;;;7.30;100.00;99443.38;4898560;29;20520;-83
2021/05/17 00:25:26;;;;;;;4.23;2.10;;;;;;;7.33;100.00;99444.16;4896325;29;20400;-82
2021/05/17 00:27:58;;;;;;;4.40;2.00;;;;;;;7.27;100.00;99433.81;4881150;29;20047;-83
2021/05/17 00:30:29;;;;;;;3.33;2.60;;;;;;;7.17;100.00;99436.72;4894091;29;20120;-82
2021/05/17 00:32:58;;;;;;;3.57;2.30;;;;;;;7.19;100.00;99429.66;4879073;29;20040;-82
2021/05/17 00:35:25;;;;;;;2.13;1.73;;;;;;;7.19;100.00;99435.78;4894279;29;20044;-81
2021/05/17 00:37:52;;;;;;;3.47;2.27;;;;;;;7.26;100.00;99423.34;4893061;29;20421;-83
2021/05/17 00:40:20;;;;;;;3.87;2.50;;;;;;;7.25;100.00;99429.50;4894377;29;20534;-82
2021/05/17 00:42:47;;;;;;;3.77;2.03;;;;;;;7.26;100.00;99436.47;4878149;29;20548;-82
2021/05/17 00:45:16;;;;;;;6.17;2.47;;;;;;;7.29;100.00;99434.63;4894015;29;20036;-82
2021/05/17 00:47:47;;;;;;;3.60;2.20;;;;;;;7.18;100.00;99427.94;4894322;29;20048;-83
2021/05/17 00:50:23;;;;;;;3.80;2.27;;;;;;;7.17;100.00;99437.59;4890003;29;20563;-82
2021/05/17 00:52:51;;;;;;;3.00;2.10;;;;;;;7.17;100.00;99436.72;4879307;29;20163;-82
2021/05/17 00:55:18;;;;;;;3.13;1.80;;;;;;;7.12;100.00;99441.22;4895000;29;20044;-82
2021/05/17 00:57:44;;;;;;;3.87;2.00;;;;;;;7.09;100.00;99436.94;4894425;29;20513;-82
2021/05/17 01:00:15;;;;;;;3.23;2.40;;;;;;;7.04;100.00;99437.03;4872129;29;20198;-82
2021/05/17 01:02:42;;;;;;;3.80;1.87;;;;;;;7.00;100.00;99437.16;4878622;29;20056;-82
2021/05/17 01:05:12;;;;;;;2.57;2.13;;;;;;;7.00;100.00;99438.03;4898791;29;20089;-81
2021/05/17 01:07:45;;;;;;;3.03;2.37;;;;;;;6.96;100.00;99443.38;4895204;29;20049;-82
2021/05/17 01:10:15;;;;;;;4.27;1.90;;;;;;;6.97;100.00;99437.22;4878895;29;20048;-82
2021/05/17 01:12:45;;;;;;;3.53;1.90;;;;;;;7.01;100.00;99442.38;4902142;29;20056;-83
2021/05/17 01:15:13;;;;;;;3.23;2.17;;;;;;;6.96;100.00;99435.50;4896909;29;20064;-83
2021/05/17 01:17:41;;;;;;;3.80;2.50;;;;;;;6.85;100.00;99432.28;4880395;29;20078;-83
2021/05/17 01:20:10;;;;;;;3.20;2.20;;;;;;;6.70;100.00;99434.38;4895433;29;20044;-82
2021/05/17 01:22:50;;;;;;;3.00;2.20;;;;;;;6.75;100.00;99432.53;4880197;29;20045;-82
2021/05/17 01:25:22;;;;;;;4.60;2.77;;;;;;;6.83;100.00;99431.47;4882515;29;20069;-83
2021/05/17 01:27:49;;;;;;;4.57;2.70;;;;;;;6.88;100.00;99435.69;4881464;29;20109;-83
2021/05/17 01:30:18;;;;;;;3.90;2.30;;;;;;;6.87;100.00;99428.72;4864052;29;20092;-83
2021/05/17 01:32:45;;;;;;;4.83;2.40;;;;;;;6.79;100.00;99430.69;4883508;29;20055;-82
2021/05/17 01:35:13;;;;;;;2.13;1.90;;;;;;;6.71;100.00;99430.00;4863843;29;20041;-82
2021/05/17 01:37:40;;;;;;;3.30;2.50;;;;;;;6.64;100.00;99425.78;4880106;29;20052;-83
2021/05/17 01:40:08;;;;;;;5.40;2.53;;;;;;;6.59;100.00;99419.81;4907866;29;20067;-83
2021/05/17 01:42:39;;;;;;;3.10;2.10;;;;;;;6.57;100.00;99425.09;4878816;29;20048;-82
2021/05/17 01:45:10;;;;;;;2.53;1.87;;;;;;;6.70;100.00;99420.41;4881377;29;20063;-83
2021/05/17 01:47:39;;;;;;;3.80;2.30;;;;;;;6.57;100.00;99425.09;4894033;29;20344;-82
2021/05/17 01:50:11;;;;;;;2.83;2.33;;;;;;;6.59;100.00;99425.06;4876992;29;20053;-82
2021/05/17 01:52:39;;;;;;;3.17;2.70;;;;;;;6.52;100.00;99434.84;4894137;29;20044;-82
2021/05/17 01:55:12;;;;;;;5.23;2.40;;;;;;;6.47;100.00;99434.06;4865677;29;20048;-83
2021/05/17 01:57:39;;;;;;;3.35;2.13;;;;;;;6.48;100.00;99431.44;4881756;29;20685;-82
2021/05/17 02:00:08;;;;;;;4.47;2.37;;;;;;;6.39;100.00;99436.00;4881656;29;20048;-82
2021/05/17 02:02:36;;;;;;;3.40;2.27;;;;;;;6.35;100.00;99434.38;4882066;29;20050;-82
2021/05/17 02:05:04;;;;;;;3.97;2.03;;;;;;;6.36;100.00;99430.84;4896499;29;20048;-83
2021/05/17 02:07:34;;;;;;;3.67;2.37;;;;;;;6.32;100.00;99434.44;4896683;29;20757;-83
2021/05/17 02:10:03;;;;;;;4.00;2.53;;;;;;;6.30;100.00;99429.22;4866367;29;20048;-82
2021/05/17 02:12:33;;;;;;;2.73;2.07;;;;;;;6.28;100.00;99431.00;4896581;29;20056;-82
2021/05/17 02:14:59;;;;;;;3.53;2.70;;;;;;;6.29;100.00;99421.38;4880449;29;20088;-82
2021/05/17 02:17:26;;;;;;;3.03;2.47;;;;;;;6.35;100.00;99431.75;4895981;29;20430;-83
2021/05/17 02:19:53;;;;;;;4.80;2.33;;;;;;;6.33;100.00;99423.06;4879796;29;20044;-83
2021/05/17 02:22:21;;;;;;;3.03;2.53;;;;;;;6.27;100.00;99426.66;4896003;29;20610;-82
2021/05/17 02:24:48;;;;;;;2.53;2.20;;;;;;;6.20;100.00;99436.44;4896696;29;20048;-83
2021/05/17 02:27:16;;;;;;;2.93;2.30;;;;;;;6.18;100.00;99445.22;4877936;29;20049;-82
2021/05/17 02:29:43;;;;;;;3.30;2.30;;;;;;;6.21;100.00;99443.41;4893243;29;20052;-83
2021/05/17 02:32:18;;;;;;;3.93;2.70;;;;;;;6.27;100.00;99441.53;4900861;29;20044;-83
2021/05/17 02:34:45;;;;;;;3.90;2.30;;;;;;;6.20;100.00;99440.81;4896096;29;20040;-82
2021/05/17 02:37:12;;;;;;;4.67;3.10;;;;;;;6.18;100.00;99442.63;4885683;29;20060;-82
2021/05/17 02:39:39;;;;;;;4.50;3.93;;;;;;;6.25;100.00;99441.59;4879893;29;20068;-82
2021/05/17 02:42:09;;;;;;;4.90;2.90;;;;;;;6.31;100.00;99441.44;4894009;29;20690;-81
2021/05/17 02:44:36;;;;;;;2.97;2.20;;;;;;;6.36;100.00;99438.72;4879765;29;20071;-82
2021/05/17 02:47:03;;;;;;;5.23;2.83;;;;;;;6.41;100.00;99434.22;4895523;29;20108;-82
2021/05/17 02:49:34;;;;;;;4.33;2.83;;;;;;;6.27;100.00;99439.78;4894926;29;20270;-81
2021/05/17 02:52:01;;;;;;;3.63;2.50;;;;;;;6.34;100.00;99440.50;4895838;29;20047;-81
2021/05/17 02:54:32;;;;;;;3.73;2.40;;;;;;;6.48;100.00;99447.19;4897127;29;20045;-80
2021/05/17 02:57:04;;;;;;;2.87;2.57;;;;;;;6.50;100.00;99447.13;4894791;29;20067;-81
2021/05/17 02:59:38;;;;;;;4.47;2.70;;;;;;;6.45;100.00;99444.59;4879887;29;20442;-81
2021/05/17 03:02:07;;;;;;;5.40;2.80;;;;;;;6.43;100.00;99449.03;4895378;29;20052;-81
2021/05/17 03:04:38;;;;;;;4.50;2.40;;;;;;;6.50;100.00;99447.13;4880578;29;20041;-81
2021/05/17 03:07:09;;;;;;;4.97;2.70;;;;;;;6.56;100.00;99454.88;4893520;29;20056;-82
2021/05/17 03:09:37;;;;;;;3.87;2.77;;;;;;;6.62;100.00;99443.34;4893791;29;20574;-81
2021/05/17 03:12:04;;;;;;;6.63;3.23;;;;;;;6.68;100.00;99446.69;4894117;29;20056;-81
2021/05/17 03:14:34;;;;;;;3.60;2.53;;;;;;;6.73;100.00;99450.09;4878618;29;20033;-81
2021/05/17 03:17:01;;;;;;;3.07;2.53;;;;;;;6.74;100.00;99453.56;4894348;29;20463;-82
2021/05/17 03:19:29;;;;;;;3.43;2.53;;;;;;;6.74;100.00;99451.81;4894013;29;20514;-81
2021/05/17 03:21:56;;;;;;;3.10;2.57;;;;;;;6.74;100.00;99454.44;4894652;29;20048;-82
2021/05/17 03:24:24;;;;;;;4.10;2.93;;;;;;;6.79;100.00;99451.69;4897754;29;20045;-82
2021/05/17 03:26:54;;;;;;;4.23;3.53;;;;;;;6.85;100.00;99448.91;4893019;29;20426;-82
2021/05/17 03:29:21;;;;;;;7.13;3.20;;;;;;;6.82;100.00;99451.63;4893353;29;20052;-81
2021/05/17 03:31:47;;;;;;;3.90;2.70;;;;;;;6.92;100.00;99454.88;4887514;29;20045;-81
2021/05/17 03:34:14;;;;;;;6.20;3.50;;;;;;;6.93;100.00;99462.72;4878866;29;20100;-82
2021/05/17 03:36:41;;;;;;;4.13;2.80;;;;;;;6.96;100.00;99465.25;4878692;29;20060;-82
2021/05/17 03:39:07;;;;;;;5.73;3.17;;;;;;;7.01;100.00;99467.78;4896794;29;20044;-82
2021/05/17 03:41:34;;;;;;;3.83;2.30;;;;;;;7.07;100.00;99474.66;4895009;29;20051;-82
2021/05/17 03:44:01;;;;;;;3.07;2.43;;;;;;;7.12;100.00;99481.47;4879160;29;20073;-82
2021/05/17 03:46:28;;;;;;;3.43;2.63;;;;;;;7.14;100.00;99477.03;4894361;29;20092;-82
2021/05/17 03:48:58;;;;;;;4.57;2.83;;;;;;;7.19;100.00;99483.06;4895494;29;20052;-82
2021/05/17 03:51:24;;;;;;;4.33;2.90;;;;;;;7.27;100.00;99481.09;4894769;29;20048;-82
2021/05/17 03:53:51;;;;;;;3.43;2.67;;;;;;;7.25;100.00;99485.53;4878354;29;20128;-81
2021/05/17 03:56:18;;;;;;;3.40;2.70;;;;;;;7.29;100.00;99484.53;4897572;29;20447;-82
2021/05/17 03:58:44;;;;;;;3.10;2.67;;;;;;;7.33;100.00;99485.34;4976953;23;20550;-86
2021/05/17 04:01:11;;;;;;;3.67;3.00;;;;;;;7.39;100.00;99492.19;4922979;29;20051;-82
2021/05/17 04:03:38;;;;;;;4.13;3.47;;;;;;;7.41;100.00;99493.88;4927638;28;20038;-83
2021/05/17 04:06:15;;;;;;;3.53;2.90;;;;;;;7.46;100.00;99488.50;4927426;28;20273;-83
2021/05/17 04:14:15;;;;;;;5.40;3.03;;;;;;;7.51;100.00;99486.63;4947105;28;20065;-85
2021/05/17 04:16:41;;;;;;;3.97;2.80;;;;;;;7.58;100.00;99486.41;4925191;28;20265;-84
2021/05/17 04:19:08;;;;;;;3.27;2.53;;;;;;;7.63;100.00;99488.91;4957066;28;20141;-83
2021/05/17 04:21:35;;;;;;;3.40;2.93;;;;;;;7.64;100.00;99490.63;4957968;28;20053;-82
2021/05/17 04:24:02;;;;;;;3.97;2.87;;;;;;;7.60;100.00;99496.88;4928219;28;20047;-84
2021/05/17 04:26:28;;;;;;;4.63;2.37;;;;;;;7.54;100.00;99492.63;4959040;28;20042;-83
2021/05/17 04:28:58;;;;;;;2.85;2.35;;;;;;;7.56;100.00;99503.09;4954901;28;20047;-82
2021/05/17 04:31:25;;;;;;;3.67;2.63;;;;;;;7.65;100.00;99502.88;4928009;28;20051;-82
2021/05/17 04:33:56;;;;;;;3.63;2.30;;;;;;;7.68;100.00;99502.78;4943956;28;20053;-85
2021/05/17 04:36:23;;;;;;;4.15;2.53;;;;;;;7.71;100.00;99499.22;4944892;28;20451;-85
2021/05/17 04:38:50;;;;;;;3.17;2.50;;;;;;;7.78;100.00;99499.00;4961077;28;20064;-86
2021/05/17 04:41:18;;;;;;;5.13;3.30;;;;;;;7.91;100.00;99491.66;4939904;28;20424;-86
2021/05/17 04:43:44;;;;;;;4.07;2.92;;;;;;;7.89;100.00;99496.94;4944239;28;20058;-84
2021/05/17 04:46:11;;;;;;;5.57;2.90;;;;;;;7.83;100.00;99502.38;4942006;28;20703;-85
2021/05/17 04:48:48;;;;;;;4.93;3.00;;;;;;;7.86;100.00;99496.16;4926037;28;20426;-83
2021/05/17 04:51:20;;;;;;;4.18;3.30;;;;;;;7.93;100.00;99502.97;4943577;28;20158;-83
2021/05/17 04:53:48;;;;;;;3.73;3.33;;;;;;;8.03;100.00;99508.84;4941430;28;20283;-83
2021/05/17 04:56:15;;;;;;;3.95;3.22;;;;;;;8.08;100.00;99505.19;4934566;28;20115;-87
2021/05/17 04:58:42;;;;;;;3.70;2.47;;;;;;;8.15;100.00;99509.34;4944113;28;20038;-84
2021/05/17 05:01:08;;;;;;;5.50;3.53;;;;;;;8.30;100.00;99501.91;4938704;29;20134;-86
2021/05/17 05:03:35;;;;;;;5.43;3.33;;;;;;;8.35;100.00;99510.56;4936868;29;20090;-85
2021/05/17 05:06:06;;;;;;;5.68;3.38;;;;;;;8.48;100.00;99506.66;4920663;28;20054;-84
2021/05/17 05:08:33;;;;;;;5.18;3.22;;;;;;;8.55;100.00;99507.31;4943169;28;20047;-85
2021/05/17 05:11:00;;;;;;;4.25;3.15;;;;;;;8.53;100.00;99515.28;4944572;28;20047;-84
2021/05/17 05:13:26;;;;;;;4.45;3.28;;;;;;;8.57;100.00;99514.25;4944202;28;20054;-84
2021/05/17 05:15:54;;;;;;;5.10;3.28;;;;;;;8.62;100.00;99517.63;4945237;28;20408;-86
2021/05/17 05:18:21;;;;;;;4.82;3.13;;;;;;;8.71;100.00;99511.22;4945206;28;20055;-84
2021/05/17 05:20:51;;;;;;;5.32;3.30;;;;;;;8.79;100.00;99521.50;4945784;28;20326;-85
2021/05/17 05:23:18;;;;;;;4.65;3.80;;;;;;;8.88;100.00;99516.81;4962945;28;20050;-85
2021/05/17 05:28:22;;;;;;;4.68;3.58;;;;;;;9.14;100.00;99529.13;4962779;28;20046;-85
2021/05/17 05:31:04;;;;;;;5.03;3.10;;;;;;;9.34;100.00;99530.28;4934115;28;20057;-84
2021/05/17 05:33:32;;;;;;;4.57;3.50;;;;;;;9.52;100.00;99527.88;4934748;28;20051;-84
2021/05/17 05:36:04;;;;;;;4.65;2.97;;;;;;;9.63;100.00;99529.28;4946364;28;20037;-83
2021/05/17 05:38:31;;;;;;;7.45;3.95;;;;;;;9.67;100.00;99526.50;4934211;28;20054;-83
2021/05/17 05:40:57;;;;;;;4.78;3.10;;;;;;;9.78;100.00;99524.31;4938607;29;20106;-86
2021/05/17 05:43:24;;;;;;;4.43;3.40;;;;;;;9.84;100.00;99528.53;4943131;28;20047;-84
2021/05/17 05:45:53;;;;;;;4.20;3.08;;;;;;;9.96;100.00;99536.00;4947642;28;20653;-84
2021/05/17 05:48:21;;;;;;;4.95;3.47;;;;;;;10.04;100.00;99526.03;4932583;28;20039;-85
2021/05/17 05:50:49;;;;;;;3.30;2.60;;;;;;;10.10;100.00;99544.28;4952167;28;20105;-83
2021/05/17 05:53:16;;;;;;;3.97;3.17;;;;;;;10.11;100.00;99539.88;4931226;29;20544;-86
2021/05/17 05:55:44;;;;;;;4.32;2.97;;;;;;;10.25;100.00;99540.22;4913153;29;20062;-84
2021/05/17 05:58:11;;;;;;;2.97;2.70;;;;;;;11.28;100.00;99527.38;4929216;29;20067;-91
2021/05/17 06:00:38;;;;;;;3.42;2.30;;;;;;;13.14;91.94;99526.06;4927362;29;20058;-86
2021/05/17 06:03:06;;;;;;;2.40;1.80;;;;;;;13.64;86.22;99527.16;4917210;29;20121;-86
2021/05/17 06:05:33;;;;;;;2.72;2.10;;;;;;;13.62;84.62;99529.88;4923237;28;20039;-89
2021/05/17 06:08:01;;;;;;;3.60;2.53;;;;;;;13.33;87.52;99531.34;4923643;29;20051;-84
2021/05/17 06:10:28;;;;;;;2.67;2.42;;;;;;;13.08;88.42;99531.63;4938281;29;20043;-85
2021/05/17 06:12:57;;;;;;;2.50;2.17;;;;;;;13.01;89.74;99527.56;4912496;29;20050;-86
2021/05/17 06:15:24;;;;;;;3.75;2.53;;;;;;;12.84;90.56;99538.13;4946295;29;20405;-87
2021/05/17 06:17:51;;;;;;;3.22;2.10;;;;;;;12.84;93.06;99531.03;4923986;29;20094;-86
2021/05/17 06:20:19;;;;;;;4.35;2.40;;;;;;;12.76;92.84;99541.13;4939787;29;20051;-85
2021/05/17 06:22:46;;;;;;;3.38;2.40;;;;;;;12.71;92.17;99534.34;4938390;29;20719;-85
2021/05/17 06:25:14;;;;;;;2.55;2.00;;;;;;;13.00;92.83;99536.47;4918445;29;20040;-84
2021/05/17 06:27:42;;;;;;;3.60;2.35;;;;;;;13.04;86.60;99537.19;4908203;29;20070;-84
2021/05/17 06:30:13;;;;;;;4.32;2.70;;;;;;;12.91;88.57;99534.25;4918253;29;20054;-85
2021/05/17 06:32:40;;;;;;;2.80;2.47;;;;;;;12.93;90.32;99541.19;4903924;29;20054;-85
2021/05/17 06:35:09;;;;;;;3.25;2.17;;;;;;;13.18;91.76;99534.69;4935591;29;20036;-84
2021/05/17 06:37:35;;;;;;;3.33;2.45;;;;;;;13.39;90.37;99539.00;4913824;29;20110;-85
2021/05/17 06:40:03;;;;;;;3.28;1.90;;;;;;;13.55;88.47;99540.88;4922430;29;20051;-86
2021/05/17 06:42:30;;;;;;;2.90;2.20;;;;;;;13.79;84.82;99535.19;4936968;29;20046;-84
2021/05/17 06:44:57;;;;;;;3.33;2.40;;;;;;;13.86;86.05;99543.66;4920231;29;20420;-85
2021/05/17 06:47:24;;;;;;;2.30;1.88;;;;;;;14.14;84.20;99550.22;4939762;29;20048;-84
2021/05/17 06:49:51;;;;;;;2.50;1.83;;;;;;;14.54;83.80;99549.81;4901847;29;20050;-84
2021/05/17 06:52:22;;;;;;;4.03;2.10;;;;;;;14.89;81.85;99544.38;4935781;28;20043;-86
2021/05/17 06:54:56;;;;;;;4.25;1.70;;;;;;;15.28;81.75;99549.22;4920894;29;20056;-86
2021/05/17 06:57:32;;;;;;;2.05;1.63;;;;;;;15.53;78.70;99548.66;4933404;29;20039;-86
2021/05/17 07:00:03;;;;;;;2.95;1.40;;;;;;;15.62;72.57;99548.13;4919257;29;20055;-84
2021/05/17 07:02:30;;;;;;;3.95;1.65;;;;;;;15.72;71.76;99546.69;4906135;29;20556;-85
2021/05/17 07:04:58;;;;;;;4.25;1.67;;;;;;;15.66;72.74;99548.84;4903896;29;20412;-85
2021/05/17 07:07:43;;;;;;;2.17;1.25;;;;;;;15.75;71.32;99551.81;4921022;29;20174;-85
2021/05/17 07:12:56;;;;;;;2.88;1.63;;;;;;;15.83;74.36;99546.03;4921378;29;20051;-85
2021/05/17 07:15:23;;;;;;;2.75;1.38;;;;;;;15.91;73.09;99543.75;4917354;28;20048;-85
2021/05/17 07:17:50;;;;;;;3.15;1.40;;;;;;;15.92;70.43;99547.28;4919747;29;20051;-86
2021/05/17 07:20:22;;;;;;;1.65;1.45;;;;;;;16.12;72.10;99546.91;4920301;29;20062;-86
2021/05/17 07:25:34;;;;;;;1.58;1.10;;;;;;;16.53;68.61;99551.50;4936432;28;20517;-86
2021/05/17 07:28:03;;;;;;;2.92;1.40;;;;;;;16.66;68.21;99540.94;4920078;29;20059;-84
2021/05/17 07:30:32;;;;;;;2.55;1.48;;;;;;;16.67;65.54;99548.84;4916763;29;20051;-86
2021/05/17 07:32:59;;;;;;;1.67;1.00;;;;;;;16.59;68.47;99557.31;4909911;28;20137;-86
2021/05/17 07:35:26;;;;;;;2.45;1.10;;;;;;;16.42;65.85;99559.31;4915727;28;20047;-86
2021/05/17 07:37:53;;;;;;;1.00;0.90;;;;;;;16.44;64.46;99547.59;4902226;29;20237;-84
2021/05/17 07:40:20;;;;;;;1.20;0.85;;;;;;;16.43;66.11;99555.72;4903287;29;20789;-84
2021/05/17 07:42:47;;;;;;;0.98;0.93;;;;;;;16.67;65.68;99554.16;4899646;29;20098;-85
2021/05/17 07:45:14;;;;;;;1.65;0.95;;;;;;;16.74;64.61;99558.19;4903364;28;20126;-85
2021/05/17 07:47:41;;;;;;;1.15;0.80;;;;;;;16.94;62.14;99548.06;4931494;29;20047;-84
2021/05/17 07:50:08;;;;;;;1.70;1.02;;;;;;;17.06;62.38;99545.44;4914377;29;20712;-85
2021/05/17 07:52:35;;;;;;;2.00;0.70;;;;;;;17.13;62.36;99551.25;4900841;29;20048;-85
2021/05/17 07:55:03;;;;;;;2.20;0.85;;;;;;;17.36;60.03;99549.75;4915397;29;20046;-85
2021/05/17 07:57:30;;;;;;;2.28;1.13;;;;;;;17.20;61.58;99555.22;4948101;28;20533;-85
2021/05/17 07:59:57;;;;;;;0.70;0.70;;;;;;;17.00;62.48;99553.00;4915062;29;20142;-87
2021/05/17 08:02:23;;;;;;;1.15;0.88;;;;;;;17.24;65.19;99554.09;4903927;29;20055;-87
2021/05/17 08:04:51;;;;;;;2.35;1.20;;;;;;;17.09;62.26;99547.06;4930057;28;20054;-87
2021/05/17 08:07:19;;;;;;;1.27;1.00;;;;;;;17.32;63.67;99546.44;4907656;29;20043;-85
2021/05/17 08:09:45;;;;;;;2.00;1.05;;;;;;;17.47;61.87;99543.69;4920616;29;20058;-85
2021/05/17 08:12:12;;;;;;;2.15;1.45;;;;;;;17.53;64.69;99553.97;4910632;29;20712;-87
2021/05/17 08:14:39;;;;;;;1.27;0.82;;;;;;;17.64;62.26;99549.59;4923697;29;20055;-86
2021/05/17 08:17:06;;;;;;;1.35;1.00;;;;;;;17.72;58.27;99565.16;4919181;28;20047;-86
2021/05/17 08:19:33;;;;;;;1.35;0.88;;;;;;;17.81;57.19;99558.31;4921806;29;20053;-87
2021/05/17 08:22:01;;;;;;;1.08;0.73;;;;;;;17.75;56.99;99558.78;4922780;29;20043;-86
2021/05/17 08:24:29;;;;;;;1.25;0.80;;;;;;;17.97;59.80;99548.31;4922988;29;20058;-86
2021/05/17 08:26:55;;;;;;;1.70;0.80;;;;;;;18.04;55.68;99551.44;4923873;29;20540;-86
2021/05/17 08:29:23;;;;;;;1.90;1.00;;;;;;;18.17;56.47;99553.16;4898972;29;20319;-85
2021/05/17 08:31:51;;;;;;;0.93;0.75;;;;;;;18.43;59.85;99567.38;4930658;29;20397;-86
2021/05/17 08:34:18;;;;;;;2.55;1.00;;;;;;;18.63;56.08;99567.78;4922422;29;20047;-85
2021/05/17 08:36:44;;;;;;;0.80;0.80;;;;;;;18.82;56.28;99560.16;4900394;28;20051;-87
2021/05/17 08:39:11;;;;;;;1.70;1.00;;;;;;;19.09;55.84;99568.91;4924104;29;20043;-86
2021/05/17 08:41:38;;;;;;;1.08;0.98;;;;;;;19.25;53.95;99565.06;4922025;29;20074;-86
2021/05/17 08:44:06;;;;;;;1.20;0.70;;;;;;;19.00;52.67;99566.00;4912512;29;20039;-87
2021/05/17 08:46:33;;;;;;;0.75;0.75;;;;;;;18.72;53.76;99580.53;4895754;29;20039;-86
2021/05/17 08:49:00;;;;;;;1.48;0.85;;;;;;;18.98;55.99;99581.34;4900826;28;20078;-86
2021/05/17 08:51:30;;;;;;;0.80;0.80;;;;;;;19.00;53.94;99574.03;4897146;29;20528;-87
2021/05/17 08:53:59;;;;;;;2.33;0.95;;;;;;;19.04;54.91;99570.19;4917913;29;20047;-86
2021/05/17 08:56:26;;;;;;;2.17;0.90;;;;;;;19.36;56.06;99576.72;4901573;29;20625;-86
2021/05/17 08:59:00;;;;;;;2.10;0.80;;;;;;;19.56;54.26;99577.94;4903332;29;20065;-87
2021/05/17 09:01:27;;;;;;;1.83;0.90;;;;;;;19.82;54.68;99580.47;4902056;28;20062;-86
2021/05/17 09:04:05;;;;;;;2.25;0.90;;;;;;;19.89;50.75;99587.09;4922377;29;20078;-86
2021/05/17 09:06:40;;;;;;;1.35;0.70;;;;;;;19.79;48.82;99591.44;4929882;29;20043;-88
2021/05/17 09:09:22;;;;;;;0.75;0.70;;;;;;;19.19;49.32;99589.66;4910619;29;20476;-87
2021/05/17 09:11:51;;;;;;;1.50;0.68;;;;;;;18.83;50.40;99596.66;4933374;29;20054;-86
2021/05/17 09:14:19;;;;;;;0.88;0.70;;;;;;;18.78;50.73;99601.50;4915764;29;20044;-87
2021/05/17 09:17:00;;;;;;;1.08;0.70;;;;;;;18.70;51.67;99603.88;4916265;29;20044;-87
2021/05/17 09:19:34;;;;;;;1.33;0.77;;;;;;;18.61;52.61;99599.13;4932430;29;20047;-87
2021/05/17 09:22:07;;;;;;;1.33;0.88;;;;;;;18.41;53.21;99601.38;4903608;29;20428;-87
2021/05/17 09:24:48;;;;;;;1.73;0.93;;;;;;;18.09;54.46;99605.44;4920257;29;20405;-86
2021/05/17 09:27:22;;;;;;;0.70;0.70;;;;;;;18.25;55.45;99593.59;4905445;29;20409;-83
2021/05/17 09:29:53;;;;;;;;;;;;;;;18.05;55.52;99607.44;4928728;29;20047;-84
2021/05/17 09:32:24;;;;;;;1.52;0.90;;;;;;;17.61;53.84;99613.91;4900072;29;19936;-85
2021/05/17 09:35:02;;;;;;;0.80;0.60;;;;;;;17.43;57.17;99607.13;4935920;29;20538;-85
2021/05/17 09:37:48;;;;;;;1.58;0.80;;;;;;;17.52;59.12;99608.34;4934957;29;20035;-85
2021/05/17 09:40:16;;;;;;;1.17;0.95;;;;;;;17.77;56.26;99605.78;4914965;28;20046;-85
2021/05/17 09:42:43;;;;;;;0.80;0.65;;;;;;;17.68;54.92;99593.88;4936777;29;20047;-84
2021/05/17 09:45:12;;;;;;;0.70;0.70;;;;;;;17.66;57.58;99600.28;4946049;29;20142;-85
2021/05/17 09:47:41;;;;;;;1.30;0.73;;;;;;;17.43;57.43;99599.13;4905587;29;20476;-83
2021/05/17 09:50:08;;;;;;;1.10;0.80;;;;;;;17.33;58.20;99601.53;4903377;29;20046;-84
2021/05/17 09:52:37;;;;;;;0.73;0.65;;;;;;;17.22;56.64;99606.69;4951118;28;20042;-84
2021/05/17 09:55:09;;;;;;;1.67;0.80;;;;;;;17.09;58.09;99606.63;4901907;29;20521;-83
2021/05/17 09:57:49;;;;;;;1.15;0.88;;;;;;;16.95;56.80;99611.13;4917643;29;20039;-84
2021/05/17 10:00:27;;;;;;;0.82;0.70;;;;;;;16.71;58.67;99614.38;4908134;29;20122;-83
2021/05/17 10:02:55;;;;;;;1.88;0.80;;;;;;;16.59;58.25;99607.13;4933714;29;20525;-85
2021/05/17 10:05:26;;;;;;;1.13;0.70;;;;;;;16.46;60.84;99611.47;4934005;29;20070;-85
2021/05/17 10:08:02;;;;;;;1.00;0.75;;;;;;;16.34;60.01;99605.09;4917410;29;20036;-85
2021/05/17 10:10:43;;;;;;;0.98;0.75;;;;;;;16.47;61.08;99611.38;4935233;28;20050;-84
2021/05/17 10:13:10;;;;;;;1.42;0.80;;;;;;;17.00;62.12;99609.03;4933450;29;20066;-84
2021/05/17 10:15:37;;;;;;;0.68;0.68;;;;;;;17.32;57.11;99601.59;4902875;28;20458;-84
2021/05/17 10:18:14;;;;;;;0.98;0.70;;;;;;;17.34;58.73;99594.38;4913413;29;20046;-85
2021/05/17 10:20:43;;;;;;;1.02;0.70;;;;;;;17.31;56.50;99597.22;4919980;29;20047;-85
2021/05/17 10:23:13;;;;;;;1.30;0.70;;;;;;;17.53;57.36;99607.38;4902708;29;20051;-84
2021/05/17 10:25:41;;;;;;;1.42;0.80;;;;;;;17.69;55.09;99605.41;4935834;29;20512;-85
2021/05/17 10:28:09;;;;;;;1.38;0.90;;;;;;;17.05;56.46;99610.44;4923775;29;20043;-84
2021/05/17 10:30:37;;;;;;;2.15;1.00;;;;;;;17.13;58.78;99615.28;4919347;29;20043;-84
2021/05/17 10:33:08;;;;;;;1.23;0.98;;;;;;;17.13;57.43;99620.63;4920829;29;20400;-85
2021/05/17 10:35:47;;;;;;;1.48;0.80;;;;;;;17.09;59.35;99622.66;4916882;29;20036;-85
2021/05/17 10:38:15;;;;;;;1.65;0.90;;;;;;;16.76;56.72;99616.78;4936073;28;20053;-85
2021/05/17 10:40:45;;;;;;;1.00;0.90;;;;;;;16.85;59.59;99622.38;4941356;29;20059;-86
2021/05/17 10:43:23;;;;;;;2.83;1.17;;;;;;;17.21;55.69;99606.78;4907290;28;20047;-88
2021/05/17 10:49:33;;;;;;;1.08;0.73;;;;;;;18.27;57.90;99610.38;4920453;29;20134;-87
2021/05/17 10:52:06;;;;;;;0.88;0.80;;;;;;;18.22;57.18;99617.84;4931577;29;20051;-84
2021/05/17 10:54:38;;;;;;;0.80;0.80;;;;;;;17.93;55.20;99624.31;4920183;29;20497;-85
2021/05/17 10:57:18;;;;;;;1.00;0.75;;;;;;;18.03;56.39;99620.06;4919657;29;20641;-85
2021/05/17 11:02:34;;;;;;;2.38;0.68;;;;;;;17.75;51.91;99618.41;4922579;29;20075;-85
2021/05/17 11:05:08;;;;;;;1.88;0.80;;;;;;;17.43;54.26;99623.16;4917857;29;20047;-86
2021/05/17 11:07:55;;;;;;;;;;;;;;;17.38;54.72;99623.44;4924650;29;20616;-85
2021/05/17 11:10:42;;;;;;;1.23;0.80;;;;;;;17.20;57.43;99634.44;4925300;28;19938;-86
2021/05/17 11:13:09;;;;;;;0.85;0.70;;;;;;;17.16;57.45;99631.13;4908273;28;20609;-86
2021/05/17 11:15:43;;;;;;;0.80;0.80;;;;;;;17.04;57.82;99622.06;4945306;28;20138;-87
2021/05/17 11:18:12;;;;;;;1.60;0.75;;;;;;;17.00;57.79;99630.38;4917131;29;20051;-86
2021/05/17 11:20:46;;;;;;;1.58;0.80;;;;;;;17.28;59.52;99633.00;4910743;29;20055;-85
2021/05/17 11:23:13;;;;;;;1.40;0.70;;;;;;;17.77;55.36;99611.13;4951457;29;20047;-85
2021/05/17 11:26:00;;;;;;;1.27;0.80;;;;;;;18.07;54.51;99618.03;4916251;28;20051;-84
2021/05/17 11:28:49;;;;;;;0.82;0.63;;;;;;;18.34;55.56;99610.81;4935346;29;20047;-86
2021/05/17 11:33:57;;;;;;;1.25;0.80;;;;;;;18.50;51.68;99613.28;4937153;29;20390;-85
2021/05/17 11:36:28;;;;;;;1.02;0.77;;;;;;;18.50;54.42;99622.16;4937294;29;20111;-86
2021/05/17 11:39:04;;;;;;;1.45;0.90;;;;;;;18.64;56.26;99628.34;4905618;29;20051;-84
2021/05/17 11:41:32;;;;;;;1.55;0.75;;;;;;;18.57;51.88;99630.56;4919317;29;20130;-85
2021/05/17 11:44:04;;;;;;;1.45;0.80;;;;;;;18.44;53.00;99627.06;4906541;29;20858;-85
2021/05/17 11:46:34;;;;;;;0.60;0.60;;;;;;;18.25;52.84;99622.13;4917413;29;20108;-85
2021/05/17 11:49:02;;;;;;;0.85;0.80;;;;;;;18.07;53.21;99616.19;4915354;29;20135;-84
2021/05/17 11:51:30;;;;;;;1.40;0.60;;;;;;;17.93;52.21;99616.31;4932107;29;20050;-85
2021/05/17 11:53:57;;;;;;;0.80;0.70;;;;;;;17.87;53.08;99622.91;4918300;29;20051;-85
2021/05/17 11:56:35;;;;;;;1.33;0.70;;;;;;;17.72;53.66;99618.56;4919038;29;20755;-84
2021/05/17 11:59:19;;;;;;;1.00;0.63;;;;;;;17.79;53.75;99619.88;4918202;29;20055;-84
2021/05/17 12:01:51;;;;;;;0.85;0.65;;;;;;;17.83;54.47;99612.53;4934441;29;20047;-85
2021/05/17 12:04:24;;;;;;;1.35;0.60;;;;;;;17.92;52.49;99619.94;4918224;28;20179;-85
2021/05/17 12:06:56;;;;;;;1.38;0.63;;;;;;;18.28;54.46;99608.53;4918401;28;20043;-84